Henleyfield, Mississippi
Current Conditions -  °F | °C
As of 1:35 PM on Thursday 23 Oct 2014 (Local Time) from KBXA Reporting Station
NA  
Wind Chill: 75°   Ceiling: NA
Heat Index: 75°   Visibility: 10mi
Dew Point: 41°   Wind: 6mph
Humidity: 29%   Direction: 30°NNE
Pressure: 30.09"   Gusts: NA
Location:  30.6922°N, 89.5187°W
Report Text: KBXA 231835Z AUTO 03005KT 10SM 24/05 A3009 RMK AO2 T02410049 PWINO
Loading
Personal Weather Stations






























Interactive Weather Map
Tropical Storm Tracking
New forecast layout! Learn more

10-Day Weather Forecast

Advertisements
Track Severe Weather on mobile